INFORMACIÓN METAR y TAF
METAR FOR LEPP
ADDS - METARS form results

(1051 UTC 10 August 2020)
Data provider http://aviationweather.gov/metar/data/
 
METAR text: LEPP 101030Z 36003KT 300V040 9999 FEW039 28/17 Q1014
Conditions at: LEPP (PAMPLONA/NOAIN , ES) observed 1030 UTC 10 August 2020
Temperature: 28.0°C (82°F)
Dewpoint: 17.0°C (63°F) [RH = 51%]
Pressure (altimeter): 29.94 inches Hg (1014.0 mb)
Winds: from the N (360 degrees) at 3 MPH (3 knots; 1.5 m/s)
Visibility: 6 or more miles (10+ km)
Ceiling: at least 12,000 feet AGL
Clouds: few clouds at 3900 feet AGL
Weather: no significant weather observed at this time

METAR text: LEPP 101008Z VRB02KT 9999 -SHRA FEW040TCU 27/16 Q1014
Conditions at: LEPP (PAMPLONA/NOAIN , ES) observed 1008 UTC 10 August 2020
Temperature: 27.0°C (81°F)
Dewpoint: 16.0°C (61°F) [RH = 51%]
Pressure (altimeter): 29.94 inches Hg (1014.0 mb)
Winds: variable direction winds at 2 MPH (2 knots; 1.0 m/s)
Visibility: 6 or more miles (10+ km)
Ceiling: at least 12,000 feet AGL
Clouds: few clouds at 4000 feet AGL
Weather: -SHRA  (light rain showers)

METAR text: LEPP 101000Z 00000KT 9999 FEW040 27/16 Q1014
Conditions at: LEPP (PAMPLONA/NOAIN , ES) observed 1000 UTC 10 August 2020
Temperature: 27.0°C (81°F)
Dewpoint: 16.0°C (61°F) [RH = 51%]
Pressure (altimeter): 29.94 inches Hg (1014.0 mb)
Winds: calm
Visibility: 6 or more miles (10+ km)
Ceiling: at least 12,000 feet AGL
Clouds: few clouds at 4000 feet AGL
Weather: no significant weather observed at this time

Forecast for: AMD
Text: TAF AMD LEPP 101045Z 1010/1109 16009KT 9999 SCT040 TX38/1014Z TN21/1105Z
Forecast period: 1000 UTC 10 August 2020 to 0900 UTC 11 August 2020
Forecast type: FROM: standard forecast or significant change
Winds: from the SSE (160 degrees) at 10 MPH (9 knots; 4.6 m/s)
Visibility: 6 or more miles (10+ km)
Ceiling: at least 12,000 feet AGL
Clouds: scattered clouds at 4000 feet AGL
Weather: no significant weather forecast for this period
Text: TEMPO 1011/1018 17015G26KT
Forecast period: 1100 to 1800 UTC 10 August 2020
Forecast type: TEMPORARY: The following changes expected for less than half the time period
Winds: from the S (170 degrees) at 17 MPH (15 knots; 7.7 m/s)
gusting to 30 MPH (26 knots; 13.4 m/s)
Visibility: missing
Ceiling: unknown
Clouds: missing
Weather: no significant weather forecast for this period
Text: PROB40
Forecast period: 1000 to 2100 UTC 10 August 2020
Forecast type: TEMPORARY: The following changes expected for less than half the time period
Winds: variable direction winds at 17 MPH (15 knots; 7.7 m/s)
gusting to 34 MPH (30 knots; 15.4 m/s)
Visibility: 1.86 miles (2.99 km)
Ceiling: 3000 feet AGL
Clouds: scattered clouds at 2000 feet AGL
broken clouds at 3000 feet AGL
Weather: TS SHRA  (thunderstorm, rain showers)

MAPA DE AEROPUERTO

INFORMACIÓN DE PISTA
Pista 15 Longitud 0 ft Ancho 0 ft
Elevación 1468 ft Umbral desplazado 0 ft Rumbo de pista 0
Pista 33 Longitud 0 ft Ancho 0 ft
Elevación 1500 ft Umbral desplazado 0 ft Rumbo de pista 0
Pista 16 Longitud 7241 ft Ancho 148 ft
Elevación 1468 ft Umbral desplazado 0 ft Rumbo de pista 152
Pista 34 Longitud 7241 ft Ancho 148 ft
Elevación 1504 ft Umbral desplazado 984 ft Rumbo de pista 332

FRECUANCIAS DEL AEROPUERTO
Tipo APP Nombre APP Frecuencia 118.2 MHZ
Tipo GND Nombre GND Frecuencia 121.7 MHZ
Tipo TWR Nombre TWR Frecuencia 118.2 MHZ

RADIO AYUDAS DEL AEROPUERTO
Tipo NDB Nombre Pamplona Frecuencia 422 KHZ
Tipo VOR-DME Nombre Pamplona Frecuencia 113550 KHZ
Tipo VOR-DME Nombre Pamplona Frecuencia 112300 KHZ